sensor_id;sensor_type;location;lat;lon;timestamp;P1;durP1;ratioP1;P2;durP2;ratioP2
12846;SDS011;6492;48.128;8.320;2023-10-19T00:01:46;6.53;;;3.27;;
12846;SDS011;6492;48.128;8.320;2023-10-19T00:05:58;7.33;;;2.77;;
12846;SDS011;6492;48.128;8.320;2023-10-19T00:10:00;4.43;;;2.80;;
12846;SDS011;6492;48.128;8.320;2023-10-19T00:14:04;2.90;;;2.30;;
12846;SDS011;6492;48.128;8.320;2023-10-19T00:18:15;5.33;;;2.50;;
12846;SDS011;6492;48.128;8.320;2023-10-19T00:22:25;4.27;;;2.40;;
12846;SDS011;6492;48.128;8.320;2023-10-19T00:26:30;4.90;;;2.50;;
12846;SDS011;6492;48.128;8.320;2023-10-19T00:30:32;4.90;;;2.53;;
12846;SDS011;6492;48.128;8.320;2023-10-19T00:34:35;2.90;;;2.30;;
12846;SDS011;6492;48.128;8.320;2023-10-19T00:38:46;4.30;;;2.30;;
12846;SDS011;6492;48.128;8.320;2023-10-19T00:42:52;5.00;;;2.33;;
12846;SDS011;6492;48.128;8.320;2023-10-19T00:46:55;3.10;;;2.40;;
12846;SDS011;6492;48.128;8.320;2023-10-19T00:51:03;3.43;;;2.23;;
12846;SDS011;6492;48.128;8.320;2023-10-19T00:55:10;2.80;;;2.43;;
12846;SDS011;6492;48.128;8.320;2023-10-19T00:59:16;3.53;;;2.67;;
12846;SDS011;6492;48.128;8.320;2023-10-19T01:03:23;4.63;;;2.50;;
12846;SDS011;6492;48.128;8.320;2023-10-19T01:07:32;4.10;;;2.17;;
12846;SDS011;6492;48.128;8.320;2023-10-19T01:15:49;4.03;;;2.10;;
12846;SDS011;6492;48.128;8.320;2023-10-19T01:19:52;2.53;;;2.30;;
12846;SDS011;6492;48.128;8.320;2023-10-19T01:23:55;3.70;;;2.17;;
12846;SDS011;6492;48.128;8.320;2023-10-19T01:27:58;2.73;;;2.33;;
12846;SDS011;6492;48.128;8.320;2023-10-19T01:32:07;3.63;;;2.53;;
12846;SDS011;6492;48.128;8.320;2023-10-19T01:36:10;4.07;;;2.30;;
12846;SDS011;6492;48.128;8.320;2023-10-19T01:40:15;3.80;;;2.33;;
12846;SDS011;6492;48.128;8.320;2023-10-19T01:44:20;6.33;;;2.30;;
12846;SDS011;6492;48.128;8.320;2023-10-19T01:48:22;3.50;;;2.10;;
12846;SDS011;6492;48.128;8.320;2023-10-19T01:52:39;2.37;;;2.07;;
12846;SDS011;6492;48.128;8.320;2023-10-19T01:56:42;3.37;;;2.00;;
12846;SDS011;6492;48.128;8.320;2023-10-19T02:00:44;4.47;;;2.10;;
12846;SDS011;6492;48.128;8.320;2023-10-19T02:04:46;2.80;;;1.90;;
12846;SDS011;6492;48.128;8.320;2023-10-19T02:08:50;4.47;;;2.10;;
12846;SDS011;6492;48.128;8.320;2023-10-19T02:12:57;2.40;;;2.00;;
12846;SDS011;6492;48.128;8.320;2023-10-19T02:16:59;4.27;;;2.00;;
12846;SDS011;6492;48.128;8.320;2023-10-19T02:21:03;3.60;;;1.90;;
12846;SDS011;6492;48.128;8.320;2023-10-19T02:25:06;5.27;;;2.17;;
12846;SDS011;6492;48.128;8.320;2023-10-19T02:29:11;2.70;;;2.00;;
12846;SDS011;6492;48.128;8.320;2023-10-19T02:33:14;3.63;;;1.97;;
12846;SDS011;6492;48.128;8.320;2023-10-19T02:37:17;2.60;;;1.70;;
12846;SDS011;6492;48.128;8.320;2023-10-19T02:41:18;3.03;;;2.10;;
12846;SDS011;6492;48.128;8.320;2023-10-19T02:45:22;2.07;;;1.70;;
12846;SDS011;6492;48.128;8.320;2023-10-19T02:49:24;6.27;;;1.90;;
12846;SDS011;6492;48.128;8.320;2023-10-19T02:53:26;2.17;;;1.97;;
12846;SDS011;6492;48.128;8.320;2023-10-19T02:57:30;2.17;;;1.77;;
12846;SDS011;6492;48.128;8.320;2023-10-19T03:01:34;2.53;;;1.70;;
12846;SDS011;6492;48.128;8.320;2023-10-19T03:05:36;3.03;;;1.70;;
12846;SDS011;6492;48.128;8.320;2023-10-19T03:09:39;4.80;;;4.07;;
12846;SDS011;6492;48.128;8.320;2023-10-19T03:13:48;2.07;;;1.57;;
12846;SDS011;6492;48.128;8.320;2023-10-19T03:17:52;1.57;;;1.47;;
12846;SDS011;6492;48.128;8.320;2023-10-19T03:21:54;2.20;;;1.47;;
12846;SDS011;6492;48.128;8.320;2023-10-19T03:26:00;1.57;;;1.47;;
12846;SDS011;6492;48.128;8.320;2023-10-19T03:30:19;1.77;;;1.30;;
12846;SDS011;6492;48.128;8.320;2023-10-19T03:34:26;2.13;;;1.50;;
12846;SDS011;6492;48.128;8.320;2023-10-19T03:38:31;1.90;;;1.67;;
12846;SDS011;6492;48.128;8.320;2023-10-19T03:42:37;3.63;;;1.50;;
12846;SDS011;6492;48.128;8.320;2023-10-19T03:46:41;2.83;;;1.43;;
12846;SDS011;6492;48.128;8.320;2023-10-19T03:50:59;1.87;;;1.37;;
12846;SDS011;6492;48.128;8.320;2023-10-19T03:55:02;1.40;;;1.30;;
12846;SDS011;6492;48.128;8.320;2023-10-19T03:59:05;2.43;;;1.20;;
12846;SDS011;6492;48.128;8.320;2023-10-19T04:03:08;2.93;;;1.30;;
12846;SDS011;6492;48.128;8.320;2023-10-19T04:07:12;2.70;;;1.50;;
12846;SDS011;6492;48.128;8.320;2023-10-19T04:11:20;2.17;;;1.50;;
12846;SDS011;6492;48.128;8.320;2023-10-19T04:15:32;2.23;;;1.37;;
12846;SDS011;6492;48.128;8.320;2023-10-19T04:19:35;2.57;;;1.47;;
12846;SDS011;6492;48.128;8.320;2023-10-19T04:23:39;2.73;;;1.50;;
12846;SDS011;6492;48.128;8.320;2023-10-19T04:27:41;1.97;;;1.60;;
12846;SDS011;6492;48.128;8.320;2023-10-19T04:31:44;1.83;;;1.30;;
12846;SDS011;6492;48.128;8.320;2023-10-19T04:35:54;1.80;;;1.40;;
12846;SDS011;6492;48.128;8.320;2023-10-19T04:40:08;3.03;;;1.50;;
12846;SDS011;6492;48.128;8.320;2023-10-19T04:44:10;1.53;;;1.37;;
12846;SDS011;6492;48.128;8.320;2023-10-19T04:48:12;2.50;;;1.50;;
12846;SDS011;6492;48.128;8.320;2023-10-19T04:52:14;2.53;;;1.37;;
12846;SDS011;6492;48.128;8.320;2023-10-19T04:56:18;1.50;;;1.40;;
12846;SDS011;6492;48.128;8.320;2023-10-19T05:00:20;2.10;;;1.30;;
12846;SDS011;6492;48.128;8.320;2023-10-19T05:04:24;2.43;;;1.40;;
12846;SDS011;6492;48.128;8.320;2023-10-19T05:08:26;1.70;;;1.40;;
12846;SDS011;6492;48.128;8.320;2023-10-19T05:12:29;1.60;;;1.50;;
12846;SDS011;6492;48.128;8.320;2023-10-19T05:16:31;2.33;;;1.43;;
12846;SDS011;6492;48.128;8.320;2023-10-19T05:20:33;1.83;;;1.47;;
12846;SDS011;6492;48.128;8.320;2023-10-19T05:24:40;1.37;;;1.10;;
12846;SDS011;6492;48.128;8.320;2023-10-19T05:28:43;2.50;;;1.50;;
12846;SDS011;6492;48.128;8.320;2023-10-19T05:32:53;2.20;;;1.40;;
12846;SDS011;6492;48.128;8.320;2023-10-19T05:36:57;3.17;;;1.50;;
12846;SDS011;6492;48.128;8.320;2023-10-19T05:41:02;2.77;;;1.90;;
12846;SDS011;6492;48.128;8.320;2023-10-19T05:45:12;2.90;;;2.13;;
12846;SDS011;6492;48.128;8.320;2023-10-19T05:49:16;4.20;;;2.27;;
12846;SDS011;6492;48.128;8.320;2023-10-19T05:53:18;1.57;;;1.47;;
12846;SDS011;6492;48.128;8.320;2023-10-19T05:57:23;1.53;;;1.43;;
12846;SDS011;6492;48.128;8.320;2023-10-19T06:01:32;1.40;;;1.30;;
12846;SDS011;6492;48.128;8.320;2023-10-19T06:05:34;2.60;;;1.50;;
12846;SDS011;6492;48.128;8.320;2023-10-19T06:09:36;1.70;;;1.53;;
12846;SDS011;6492;48.128;8.320;2023-10-19T06:13:39;2.67;;;1.50;;
12846;SDS011;6492;48.128;8.320;2023-10-19T06:17:42;3.53;;;1.50;;
12846;SDS011;6492;48.128;8.320;2023-10-19T06:21:45;1.20;;;1.10;;
12846;SDS011;6492;48.128;8.320;2023-10-19T06:25:47;1.67;;;1.17;;
12846;SDS011;6492;48.128;8.320;2023-10-19T06:29:51;1.13;;;1.03;;
12846;SDS011;6492;48.128;8.320;2023-10-19T06:33:54;1.40;;;1.30;;
12846;SDS011;6492;48.128;8.320;2023-10-19T06:38:00;1.60;;;1.00;;
12846;SDS011;6492;48.128;8.320;2023-10-19T06:42:03;1.27;;;1.00;;
12846;SDS011;6492;48.128;8.320;2023-10-19T06:46:05;1.43;;;1.20;;
12846;SDS011;6492;48.128;8.320;2023-10-19T06:50:13;2.03;;;1.33;;
12846;SDS011;6492;48.128;8.320;2023-10-19T06:54:16;1.33;;;1.23;;
12846;SDS011;6492;48.128;8.320;2023-10-19T06:58:18;2.10;;;1.30;;
12846;SDS011;6492;48.128;8.320;2023-10-19T07:02:21;2.30;;;1.63;;
12846;SDS011;6492;48.128;8.320;2023-10-19T07:06:25;3.17;;;1.60;;
12846;SDS011;6492;48.128;8.320;2023-10-19T07:10:27;1.30;;;1.20;;
12846;SDS011;6492;48.128;8.320;2023-10-19T07:14:32;2.33;;;1.40;;
12846;SDS011;6492;48.128;8.320;2023-10-19T07:18:34;2.53;;;2.30;;
12846;SDS011;6492;48.128;8.320;2023-10-19T07:22:38;1.23;;;0.93;;
12846;SDS011;6492;48.128;8.320;2023-10-19T07:26:44;1.20;;;1.10;;
12846;SDS011;6492;48.128;8.320;2023-10-19T07:31:03;2.20;;;1.93;;
12846;SDS011;6492;48.128;8.320;2023-10-19T08:45:09;1.80;;;1.37;;
12846;SDS011;6492;48.128;8.320;2023-10-19T08:49:15;2.10;;;1.80;;
12846;SDS011;6492;48.128;8.320;2023-10-19T08:53:19;2.83;;;1.17;;
12846;SDS011;6492;48.128;8.320;2023-10-19T08:57:23;1.40;;;1.30;;
12846;SDS011;6492;48.128;8.320;2023-10-19T09:01:27;1.30;;;1.03;;
12846;SDS011;6492;48.128;8.320;2023-10-19T09:05:29;1.70;;;1.40;;
12846;SDS011;6492;48.128;8.320;2023-10-19T09:09:31;1.93;;;1.37;;
12846;SDS011;6492;48.128;8.320;2023-10-19T09:13:45;1.70;;;1.38;;
12846;SDS011;6492;48.128;8.320;2023-10-19T09:17:53;2.00;;;1.53;;
12846;SDS011;6492;48.128;8.320;2023-10-19T09:21:56;1.90;;;1.80;;
12846;SDS011;6492;48.128;8.320;2023-10-19T09:26:00;1.30;;;1.20;;
12846;SDS011;6492;48.128;8.320;2023-10-19T09:35:02;1.70;;;1.17;;
12846;SDS011;6492;48.128;8.320;2023-10-19T09:39:48;1.97;;;1.57;;
12846;SDS011;6492;48.128;8.320;2023-10-19T09:44:28;1.50;;;1.40;;
12846;SDS011;6492;48.128;8.320;2023-10-19T09:48:51;1.30;;;1.20;;
12846;SDS011;6492;48.128;8.320;2023-10-19T09:53:25;1.50;;;1.40;;
12846;SDS011;6492;48.128;8.320;2023-10-19T09:57:56;1.10;;;1.00;;
12846;SDS011;6492;48.128;8.320;2023-10-19T10:02:31;1.43;;;1.33;;
12846;SDS011;6492;48.128;8.320;2023-10-19T10:07:00;1.60;;;1.50;;
12846;SDS011;6492;48.128;8.320;2023-10-19T10:52:10;3.20;;;2.03;;
12846;SDS011;6492;48.128;8.320;2023-10-19T10:57:01;17.93;;;12.70;;
12846;SDS011;6492;48.128;8.320;2023-10-19T11:01:59;6.10;;;5.10;;
12846;SDS011;6492;48.128;8.320;2023-10-19T11:06:24;4.05;;;3.40;;
12846;SDS011;6492;48.128;8.320;2023-10-19T12:07:25;0.97;;;0.90;;
12846;SDS011;6492;48.128;8.320;2023-10-19T12:11:47;0.83;;;0.80;;
12846;SDS011;6492;48.128;8.320;2023-10-19T12:21:56;0.60;;;0.60;;
12846;SDS011;6492;48.128;8.320;2023-10-19T12:26:12;0.87;;;0.87;;
12846;SDS011;6492;48.128;8.320;2023-10-19T12:34:36;1.13;;;0.83;;
12846;SDS011;6492;48.128;8.320;2023-10-19T12:38:46;2.30;;;0.70;;
12846;SDS011;6492;48.128;8.320;2023-10-19T12:42:53;0.90;;;0.90;;
12846;SDS011;6492;48.128;8.320;2023-10-19T12:47:10;0.73;;;0.73;;
12846;SDS011;6492;48.128;8.320;2023-10-19T12:51:19;1.00;;;0.90;;
12846;SDS011;6492;48.128;8.320;2023-10-19T12:55:42;0.80;;;0.80;;
12846;SDS011;6492;48.128;8.320;2023-10-19T12:59:50;2.47;;;0.90;;
12846;SDS011;6492;48.128;8.320;2023-10-19T13:03:52;1.40;;;0.70;;
12846;SDS011;6492;48.128;8.320;2023-10-19T13:08:06;0.80;;;0.80;;
12846;SDS011;6492;48.128;8.320;2023-10-19T13:12:17;2.10;;;1.00;;
12846;SDS011;6492;48.128;8.320;2023-10-19T13:16:25;0.53;;;0.53;;
12846;SDS011;6492;48.128;8.320;2023-10-19T13:20:37;1.87;;;0.60;;
12846;SDS011;6492;48.128;8.320;2023-10-19T13:24:44;1.93;;;0.90;;
12846;SDS011;6492;48.128;8.320;2023-10-19T13:28:46;2.20;;;1.20;;
12846;SDS011;6492;48.128;8.320;2023-10-19T13:37:14;1.93;;;1.63;;
12846;SDS011;6492;48.128;8.320;2023-10-19T13:41:16;1.30;;;1.20;;
12846;SDS011;6492;48.128;8.320;2023-10-19T13:45:23;1.20;;;1.10;;
12846;SDS011;6492;48.128;8.320;2023-10-19T13:49:28;0.90;;;0.90;;
12846;SDS011;6492;48.128;8.320;2023-10-19T13:53:30;1.33;;;0.90;;
12846;SDS011;6492;48.128;8.320;2023-10-19T13:57:34;1.40;;;1.13;;
12846;SDS011;6492;48.128;8.320;2023-10-19T14:01:37;1.50;;;1.00;;
12846;SDS011;6492;48.128;8.320;2023-10-19T14:05:42;1.17;;;1.07;;
12846;SDS011;6492;48.128;8.320;2023-10-19T14:09:50;1.63;;;1.10;;
12846;SDS011;6492;48.128;8.320;2023-10-19T14:13:52;1.33;;;1.23;;
12846;SDS011;6492;48.128;8.320;2023-10-19T14:17:55;1.00;;;0.90;;
12846;SDS011;6492;48.128;8.320;2023-10-19T14:22:00;1.20;;;0.90;;
12846;SDS011;6492;48.128;8.320;2023-10-19T14:26:03;1.40;;;1.30;;
12846;SDS011;6492;48.128;8.320;2023-10-19T14:30:12;1.43;;;1.33;;
12846;SDS011;6492;48.128;8.320;2023-10-19T14:34:15;2.23;;;1.93;;
12846;SDS011;6492;48.128;8.320;2023-10-19T14:38:19;2.40;;;2.20;;
12846;SDS011;6492;48.128;8.320;2023-10-19T14:42:26;2.27;;;2.07;;
12846;SDS011;6492;48.128;8.320;2023-10-19T14:46:45;2.63;;;2.00;;
12846;SDS011;6492;48.128;8.320;2023-10-19T14:50:50;2.80;;;1.97;;
12846;SDS011;6492;48.128;8.320;2023-10-19T14:55:07;6.33;;;5.07;;
12846;SDS011;6492;48.128;8.320;2023-10-19T14:59:16;4.00;;;3.03;;
12846;SDS011;6492;48.128;8.320;2023-10-19T15:03:31;1.60;;;1.47;;
12846;SDS011;6492;48.128;8.320;2023-10-19T15:07:35;1.60;;;1.30;;
12846;SDS011;6492;48.128;8.320;2023-10-19T15:11:39;1.40;;;1.30;;
12846;SDS011;6492;48.128;8.320;2023-10-19T15:15:42;1.87;;;1.57;;
12846;SDS011;6492;48.128;8.320;2023-10-19T15:19:44;2.23;;;1.63;;
12846;SDS011;6492;48.128;8.320;2023-10-19T15:23:47;2.40;;;2.00;;
12846;SDS011;6492;48.128;8.320;2023-10-19T15:27:53;2.40;;;2.20;;
12846;SDS011;6492;48.128;8.320;2023-10-19T15:31:56;4.63;;;2.80;;
12846;SDS011;6492;48.128;8.320;2023-10-19T15:35:58;3.60;;;3.27;;
12846;SDS011;6492;48.128;8.320;2023-10-19T15:40:00;3.60;;;3.00;;
12846;SDS011;6492;48.128;8.320;2023-10-19T15:44:05;2.53;;;2.30;;
12846;SDS011;6492;48.128;8.320;2023-10-19T15:48:08;2.40;;;2.00;;
12846;SDS011;6492;48.128;8.320;2023-10-19T15:52:12;2.57;;;2.37;;
12846;SDS011;6492;48.128;8.320;2023-10-19T15:56:14;4.90;;;3.63;;
12846;SDS011;6492;48.128;8.320;2023-10-19T16:00:19;5.60;;;4.07;;
12846;SDS011;6492;48.128;8.320;2023-10-19T16:04:21;5.70;;;4.23;;
12846;SDS011;6492;48.128;8.320;2023-10-19T16:08:24;6.20;;;5.60;;
12846;SDS011;6492;48.128;8.320;2023-10-19T16:16:36;8.20;;;7.40;;
12846;SDS011;6492;48.128;8.320;2023-10-19T16:20:38;8.53;;;7.73;;
12846;SDS011;6492;48.128;8.320;2023-10-19T16:24:46;9.53;;;8.63;;
12846;SDS011;6492;48.128;8.320;2023-10-19T16:28:48;9.30;;;8.30;;
12846;SDS011;6492;48.128;8.320;2023-10-19T16:32:56;8.80;;;8.00;;
12846;SDS011;6492;48.128;8.320;2023-10-19T16:36:58;9.00;;;8.10;;
12846;SDS011;6492;48.128;8.320;2023-10-19T16:41:00;9.53;;;8.53;;
12846;SDS011;6492;48.128;8.320;2023-10-19T16:45:03;9.13;;;8.23;;
12846;SDS011;6492;48.128;8.320;2023-10-19T16:49:08;10.60;;;8.87;;
12846;SDS011;6492;48.128;8.320;2023-10-19T16:53:11;11.57;;;9.77;;
12846;SDS011;6492;48.128;8.320;2023-10-19T17:01:21;9.37;;;8.47;;
12846;SDS011;6492;48.128;8.320;2023-10-19T17:05:27;11.33;;;8.30;;
12846;SDS011;6492;48.128;8.320;2023-10-19T17:09:29;12.33;;;8.60;;
12846;SDS011;6492;48.128;8.320;2023-10-19T17:13:31;10.63;;;9.60;;
12846;SDS011;6492;48.128;8.320;2023-10-19T17:17:35;7.23;;;6.57;;
12846;SDS011;6492;48.128;8.320;2023-10-19T17:21:39;8.97;;;8.07;;
12846;SDS011;6492;48.128;8.320;2023-10-19T17:25:42;11.10;;;10.00;;
12846;SDS011;6492;48.128;8.320;2023-10-19T17:29:46;10.07;;;9.13;;
12846;SDS011;6492;48.128;8.320;2023-10-19T17:33:49;11.43;;;10.13;;
12846;SDS011;6492;48.128;8.320;2023-10-19T17:37:55;13.57;;;12.17;;
12846;SDS011;6492;48.128;8.320;2023-10-19T17:42:05;13.77;;;12.37;;
12846;SDS011;6492;48.128;8.320;2023-10-19T17:46:22;12.53;;;10.93;;
12846;SDS011;6492;48.128;8.320;2023-10-19T17:50:24;13.70;;;11.50;;
12846;SDS011;6492;48.128;8.320;2023-10-19T17:54:30;16.30;;;13.53;;
12846;SDS011;6492;48.128;8.320;2023-10-19T18:02:54;15.00;;;12.93;;
12846;SDS011;6492;48.128;8.320;2023-10-19T18:06:58;17.07;;;15.27;;
12846;SDS011;6492;48.128;8.320;2023-10-19T18:11:01;13.90;;;12.47;;
12846;SDS011;6492;48.128;8.320;2023-10-19T18:15:04;12.40;;;11.07;;
12846;SDS011;6492;48.128;8.320;2023-10-19T18:19:10;14.67;;;12.70;;
12846;SDS011;6492;48.128;8.320;2023-10-19T18:27:37;14.03;;;12.40;;
12846;SDS011;6492;48.128;8.320;2023-10-19T18:31:39;13.13;;;11.47;;
12846;SDS011;6492;48.128;8.320;2023-10-19T18:35:41;14.50;;;12.80;;
12846;SDS011;6492;48.128;8.320;2023-10-19T18:39:44;14.53;;;12.63;;
12846;SDS011;6492;48.128;8.320;2023-10-19T18:43:48;13.37;;;11.83;;
12846;SDS011;6492;48.128;8.320;2023-10-19T18:47:52;15.13;;;13.07;;
12846;SDS011;6492;48.128;8.320;2023-10-19T18:51:56;15.23;;;12.87;;
12846;SDS011;6492;48.128;8.320;2023-10-19T18:55:58;14.80;;;12.23;;
12846;SDS011;6492;48.128;8.320;2023-10-19T19:00:02;16.37;;;13.30;;
12846;SDS011;6492;48.128;8.320;2023-10-19T19:04:04;16.00;;;12.93;;
12846;SDS011;6492;48.128;8.320;2023-10-19T19:08:14;14.53;;;12.37;;
12846;SDS011;6492;48.128;8.320;2023-10-19T19:12:19;13.00;;;11.63;;
12846;SDS011;6492;48.128;8.320;2023-10-19T19:16:22;15.50;;;12.17;;
12846;SDS011;6492;48.128;8.320;2023-10-19T19:20:25;12.60;;;11.00;;
12846;SDS011;6492;48.128;8.320;2023-10-19T19:24:29;15.10;;;12.77;;
12846;SDS011;6492;48.128;8.320;2023-10-19T19:28:36;12.47;;;10.60;;
12846;SDS011;6492;48.128;8.320;2023-10-19T19:32:44;11.57;;;10.33;;
12846;SDS011;6492;48.128;8.320;2023-10-19T19:36:46;12.13;;;10.27;;
12846;SDS011;6492;48.128;8.320;2023-10-19T19:41:08;11.43;;;9.63;;
12846;SDS011;6492;48.128;8.320;2023-10-19T19:45:31;12.03;;;10.00;;
12846;SDS011;6492;48.128;8.320;2023-10-19T19:54:05;12.33;;;10.30;;
12846;SDS011;6492;48.128;8.320;2023-10-19T19:58:11;9.80;;;8.80;;
12846;SDS011;6492;48.128;8.320;2023-10-19T20:02:14;11.13;;;9.73;;
12846;SDS011;6492;48.128;8.320;2023-10-19T20:06:19;10.53;;;8.40;;
12846;SDS011;6492;48.128;8.320;2023-10-19T20:10:21;9.93;;;8.93;;
12846;SDS011;6492;48.128;8.320;2023-10-19T20:14:24;8.73;;;7.83;;
12846;SDS011;6492;48.128;8.320;2023-10-19T20:18:27;10.77;;;8.00;;
12846;SDS011;6492;48.128;8.320;2023-10-19T20:22:31;9.47;;;8.17;;
12846;SDS011;6492;48.128;8.320;2023-10-19T20:26:36;8.50;;;7.57;;
12846;SDS011;6492;48.128;8.320;2023-10-19T20:30:39;8.30;;;7.50;;
12846;SDS011;6492;48.128;8.320;2023-10-19T20:34:48;8.37;;;7.47;;
12846;SDS011;6492;48.128;8.320;2023-10-19T20:43:53;8.03;;;6.67;;
12846;SDS011;6492;48.128;8.320;2023-10-19T20:48:09;9.57;;;6.97;;
12846;SDS011;6492;48.128;8.320;2023-10-19T20:52:31;8.10;;;6.83;;
12846;SDS011;6492;48.128;8.320;2023-10-19T20:56:44;7.37;;;6.40;;
12846;SDS011;6492;48.128;8.320;2023-10-19T21:00:53;7.07;;;5.93;;
12846;SDS011;6492;48.128;8.320;2023-10-19T21:05:07;10.00;;;7.83;;
12846;SDS011;6492;48.128;8.320;2023-10-19T21:13:23;8.27;;;6.30;;
12846;SDS011;6492;48.128;8.320;2023-10-19T21:17:32;8.17;;;6.60;;
12846;SDS011;6492;48.128;8.320;2023-10-19T21:21:38;8.23;;;7.37;;
12846;SDS011;6492;48.128;8.320;2023-10-19T21:25:48;8.00;;;6.90;;
12846;SDS011;6492;48.128;8.320;2023-10-19T21:29:58;7.73;;;6.07;;
12846;SDS011;6492;48.128;8.320;2023-10-19T21:34:17;7.27;;;6.20;;
12846;SDS011;6492;48.128;8.320;2023-10-19T21:38:33;7.13;;;6.00;;
12846;SDS011;6492;48.128;8.320;2023-10-19T21:42:45;6.50;;;5.83;;
12846;SDS011;6492;48.128;8.320;2023-10-19T21:47:15;7.50;;;5.90;;
12846;SDS011;6492;48.128;8.320;2023-10-19T21:51:37;8.03;;;5.80;;
12846;SDS011;6492;48.128;8.320;2023-10-19T21:55:41;7.10;;;5.87;;
12846;SDS011;6492;48.128;8.320;2023-10-19T21:59:49;6.70;;;5.53;;
12846;SDS011;6492;48.128;8.320;2023-10-19T22:04:27;6.97;;;5.83;;
12846;SDS011;6492;48.128;8.320;2023-10-19T22:23:54;6.50;;;5.57;;
12846;SDS011;6492;48.128;8.320;2023-10-19T22:28:59;4.87;;;4.10;;
12846;SDS011;6492;48.128;8.320;2023-10-19T22:38:04;4.13;;;3.77;;
12846;SDS011;6492;48.128;8.320;2023-10-19T22:42:11;5.70;;;3.83;;
12846;SDS011;6492;48.128;8.320;2023-10-19T22:46:32;5.77;;;4.80;;
12846;SDS011;6492;48.128;8.320;2023-10-19T22:50:40;7.30;;;5.57;;
12846;SDS011;6492;48.128;8.320;2023-10-19T22:54:47;8.07;;;4.60;;
12846;SDS011;6492;48.128;8.320;2023-10-19T23:03:53;6.40;;;5.53;;
12846;SDS011;6492;48.128;8.320;2023-10-19T23:08:15;7.30;;;5.70;;
12846;SDS011;6492;48.128;8.320;2023-10-19T23:12:34;5.90;;;5.30;;
12846;SDS011;6492;48.128;8.320;2023-10-19T23:16:46;5.50;;;5.00;;
12846;SDS011;6492;48.128;8.320;2023-10-19T23:20:52;6.23;;;5.47;;
12846;SDS011;6492;48.128;8.320;2023-10-19T23:30:41;7.30;;;5.10;;
12846;SDS011;6492;48.128;8.320;2023-10-19T23:34:43;6.40;;;4.93;;
12846;SDS011;6492;48.128;8.320;2023-10-19T23:53:57;8.57;;;5.63;;
12846;SDS011;6492;48.128;8.320;2023-10-19T23:58:02;7.03;;;6.20;;
